Time;durP1;ratioP1;P1;durP2;ratioP2;P2;SDS_P1;SDS_P2;PMS_P1;PMS_P2;Temp;Humidity;BMP_temperature;BMP_pressure;BME280_temperature;BME280_humidity;BME280_pressure;Samples;Min_cycle;Max_cycle;Signal;HPM_P1;HPM_P2
2021/11/29 00:13:47;;;;;;;;;13.50;10.25;;;;;14.47;51.63;96224.13;4953367;27;102534;-87
2021/11/29 00:16:14;;;;;;;;;10.25;9.00;;;;;14.55;51.06;96235.19;4944178;28;102252;-86
2021/11/29 00:18:42;;;;;;;;;15.50;13.75;;;;;14.62;51.24;96224.00;4950191;28;104411;-86
2021/11/29 00:21:11;;;;;;;;;13.00;13.00;;;;;14.66;50.95;96246.81;4948203;28;104605;-86
2021/11/29 00:23:38;;;;;;;;;13.75;12.50;;;;;14.69;50.99;96235.34;4955589;28;102194;-86
2021/11/29 00:26:05;;;;;;;;;16.75;12.00;;;;;14.77;50.84;96253.78;4954769;28;102144;-86
2021/11/29 00:28:33;;;;;;;;;15.50;14.25;;;;;14.80;50.57;96257.84;4947420;28;103224;-86
2021/11/29 00:31:00;;;;;;;;;21.75;15.00;;;;;14.84;50.49;96254.28;4959537;28;102314;-87
2021/11/29 00:33:27;;;;;;;;;19.00;14.25;;;;;14.87;50.45;96253.69;4954573;28;103244;-86
2021/11/29 00:35:54;;;;;;;;;17.00;14.00;;;;;14.91;50.41;96243.88;4956794;28;102304;-86
2021/11/29 00:38:21;;;;;;;;;22.00;16.25;;;;;14.91;49.99;96240.31;4955387;28;104084;-86
2021/11/29 00:40:48;;;;;;;;;16.25;14.00;;;;;14.96;50.42;96246.53;4961581;28;102990;-86
2021/11/29 00:43:15;;;;;;;;;17.75;13.50;;;;;14.98;50.38;96257.16;4935317;28;102697;-85
2021/11/29 00:45:42;;;;;;;;;13.25;12.75;;;;;14.99;49.91;96259.59;4957310;28;102792;-86
2021/11/29 00:48:09;;;;;;;;;17.00;15.25;;;;;15.04;49.77;96256.81;4955428;28;104164;-87
2021/11/29 00:50:39;;;;;;;;;17.75;14.50;;;;;15.06;50.12;96262.78;4951020;28;102551;-86
2021/11/29 00:53:07;;;;;;;;;14.75;13.25;;;;;15.08;49.86;96263.28;4937005;28;107062;-86
2021/11/29 00:55:35;;;;;;;;;16.00;14.00;;;;;15.10;49.85;96250.22;4942176;28;102457;-87
2021/11/29 00:58:02;;;;;;;;;17.00;15.75;;;;;15.13;49.67;96262.44;4932580;28;105069;-86
2021/11/29 01:00:29;;;;;;;;;19.75;14.50;;;;;15.14;49.44;96259.44;4949908;28;103854;-84
2021/11/29 01:02:57;;;;;;;;;14.50;13.75;;;;;15.15;49.74;96263.78;4935532;28;102643;-84
2021/11/29 01:05:24;;;;;;;;;14.00;12.00;;;;;15.17;49.75;96263.50;4913491;28;102237;-84
2021/11/29 01:07:57;;;;;;;;;13.00;13.00;;;;;15.17;49.44;96256.13;4929618;28;104224;-85
2021/11/29 01:10:27;;;;;;;;;16.00;13.25;;;;;15.18;49.56;96255.03;4960024;28;102532;-85
2021/11/29 01:12:55;;;;;;;;;12.50;11.00;;;;;15.20;49.70;96262.94;4947527;28;102566;-84
2021/11/29 01:15:24;;;;;;;;;16.50;14.00;;;;;15.21;49.54;96264.56;4946442;28;103007;-84
2021/11/29 01:17:51;;;;;;;;;16.25;15.00;;;;;15.23;49.42;96264.25;4951391;28;103987;-85
2021/11/29 01:20:19;;;;;;;;;14.00;14.00;;;;;15.23;49.48;96262.34;4926016;28;102758;-84
2021/11/29 01:22:46;;;;;;;;;14.75;14.00;;;;;15.23;49.30;96262.34;4940512;28;102436;-84
2021/11/29 01:25:13;;;;;;;;;17.75;15.00;;;;;15.24;49.35;96266.69;4942446;28;102198;-85
2021/11/29 01:27:40;;;;;;;;;15.50;14.50;;;;;15.26;49.55;96269.13;4949422;28;104077;-85
2021/11/29 01:30:08;;;;;;;;;16.00;14.75;;;;;15.27;49.40;96262.56;4936730;28;102578;-85
2021/11/29 01:32:35;;;;;;;;;16.50;12.50;;;;;15.27;49.19;96263.38;4938523;28;105036;-84
2021/11/29 01:35:02;;;;;;;;;17.00;14.00;;;;;15.28;48.99;96266.91;4944278;28;103030;-84
2021/11/29 01:37:30;;;;;;;;;17.75;15.50;;;;;15.28;49.13;96269.66;4937731;28;104362;-85
2021/11/29 01:39:57;;;;;;;;;7.50;7.50;;;;;15.29;49.04;96272.09;4937690;28;103611;-85
2021/11/29 01:42:24;;;;;;;;;17.00;13.75;;;;;15.29;49.09;96272.09;4946879;28;102722;-84
2021/11/29 01:44:50;;;;;;;;;13.00;12.00;;;;;15.30;49.01;96267.47;4922152;28;102613;-84
2021/11/29 01:47:21;;;;;;;;;17.75;14.75;;;;;15.31;49.45;96263.66;4920735;28;104004;-84
2021/11/29 01:49:48;;;;;;;;;13.75;12.00;;;;;15.31;49.02;96266.38;4933295;28;105430;-84
2021/11/29 01:52:15;;;;;;;;;19.25;14.00;;;;;15.31;49.16;96253.53;4922830;28;102514;-84
2021/11/29 01:54:42;;;;;;;;;18.75;14.50;;;;;15.32;49.02;96259.81;4928825;28;102201;-84
2021/11/29 01:57:10;;;;;;;;;17.75;13.25;;;;;15.31;48.90;96258.19;4945122;28;104356;-85
2021/11/29 01:59:37;;;;;;;;;18.50;12.00;;;;;15.32;49.14;96257.91;4911707;28;102533;-85
2021/11/29 02:02:04;;;;;;;;;15.25;13.00;;;;;15.31;48.77;96258.19;4909461;28;104592;-85
2021/11/29 02:04:31;;;;;;;;;17.00;15.75;;;;;15.33;49.05;96264.97;4914011;28;102585;-85
2021/11/29 02:06:58;;;;;;;;;17.00;13.50;;;;;15.33;49.05;96266.88;4919061;28;104276;-84
2021/11/29 02:09:26;;;;;;;;;19.00;16.25;;;;;15.32;49.04;96263.34;4882057;28;102323;-84
2021/11/29 02:11:54;;;;;;;;;15.25;14.25;;;;;15.32;49.02;96266.06;4911093;28;102595;-84
2021/11/29 02:14:23;;;;;;;;;15.75;12.00;;;;;15.34;48.90;96273.94;4915164;28;102379;-85
2021/11/29 02:16:51;;;;;;;;;13.00;12.00;;;;;15.34;48.71;96268.50;4906875;28;103808;-84
2021/11/29 02:19:18;;;;;;;;;11.25;10.75;;;;;15.34;48.80;96263.88;4929813;28;107216;-84
2021/11/29 02:21:45;;;;;;;;;15.00;14.75;;;;;15.35;48.77;96264.69;4906134;28;102500;-85
2021/11/29 02:24:12;;;;;;;;;14.25;12.00;;;;;15.35;48.83;96259.25;4899834;28;102342;-85
2021/11/29 02:26:40;;;;;;;;;16.50;14.50;;;;;15.35;49.05;96261.97;4919394;28;104022;-85
2021/11/29 02:29:12;;;;;;;;;14.75;14.25;;;;;15.35;48.98;96259.25;4909556;28;102562;-85
2021/11/29 02:31:43;;;;;;;;;14.25;12.50;;;;;15.35;48.81;96260.06;4902420;28;103046;-85
2021/11/29 02:34:21;;;;;;;;;14.75;10.75;;;;;15.36;48.86;96258.13;4921937;28;102510;-85
2021/11/29 02:36:49;;;;;;;;;12.25;12.00;;;;;15.36;48.50;96260.84;4897473;28;109300;-84
2021/11/29 02:39:17;;;;;;;;;17.00;14.00;;;;;15.36;48.88;96261.66;4900455;28;102974;-85
2021/11/29 02:41:45;;;;;;;;;14.50;11.50;;;;;15.37;48.83;96259.75;4904626;28;102535;-85
2021/11/29 02:44:12;;;;;;;;;15.25;13.50;;;;;15.34;48.80;96258.44;4917886;28;102729;-85
2021/11/29 02:46:39;;;;;;;;;11.25;9.50;;;;;15.36;48.60;96274.47;4897670;28;104246;-84
2021/11/29 02:49:07;;;;;;;;;11.00;11.00;;;;;15.36;48.66;96269.00;4903987;28;102464;-85
2021/11/29 02:51:54;;;;;;;;;8.50;5.75;;;;;15.37;48.83;96276.09;4917001;28;102643;-84
2021/11/29 02:54:23;;;;;;;;;12.25;11.50;;;;;15.36;48.69;96279.91;4908767;28;102747;-85
2021/11/29 02:56:52;;;;;;;;;15.75;14.00;;;;;15.36;48.40;96283.44;4908743;28;104322;-84
2021/11/29 02:59:22;;;;;;;;;15.00;12.00;;;;;15.36;48.58;96282.63;4914410;28;103950;-85
2021/11/29 03:01:51;;;;;;;;;15.50;13.50;;;;;15.34;48.28;96273.94;4917576;28;103776;-84
2021/11/29 03:04:23;;;;;;;;;14.50;12.75;;;;;15.36;48.26;96277.19;4902055;28;102970;-84
2021/11/29 03:06:50;;;;;;;;;18.25;12.00;;;;;15.35;48.54;96283.75;4914429;28;110370;-84
2021/11/29 03:09:17;;;;;;;;;14.75;13.00;;;;;15.37;48.79;96295.16;4921409;28;105066;-85
2021/11/29 03:11:44;;;;;;;;;14.25;11.00;;;;;15.36;48.41;96282.63;4907477;28;104464;-84
2021/11/29 03:14:11;;;;;;;;;16.00;11.00;;;;;15.35;48.34;96283.75;4947825;28;102632;-84
2021/11/29 03:16:38;;;;;;;;;15.00;13.25;;;;;15.36;48.47;96285.34;4941182;28;104034;-85
2021/11/29 03:19:05;;;;;;;;;12.50;12.00;;;;;15.35;48.53;96283.75;4936397;28;102649;-85
2021/11/29 03:21:33;;;;;;;;;14.75;13.00;;;;;15.34;48.36;96284.84;4939231;28;103704;-85
2021/11/29 03:24:01;;;;;;;;;10.75;10.75;;;;;15.35;48.55;96286.47;4936384;28;104194;-85
2021/11/29 03:26:29;;;;;;;;;12.25;11.00;;;;;15.34;48.57;96273.94;4940957;28;104080;-84
2021/11/29 03:29:02;;;;;;;;;12.50;9.50;;;;;15.33;48.46;96284.03;4915115;28;103293;-84
2021/11/29 03:31:31;;;;;;;;;13.50;11.00;;;;;15.34;48.05;96290.28;4919860;28;102694;-85
2021/11/29 03:34:00;;;;;;;;;12.75;10.25;;;;;15.33;48.78;96294.09;4941063;28;102134;-84
2021/11/29 03:36:28;;;;;;;;;12.25;10.75;;;;;15.32;48.39;96297.91;4925564;28;104074;-85
2021/11/29 03:38:56;;;;;;;;;15.75;12.25;;;;;15.32;48.74;96300.66;4905274;28;102128;-85
2021/11/29 03:41:23;;;;;;;;;15.50;12.00;;;;;15.31;48.13;96291.66;4935939;28;103302;-84
2021/11/29 03:43:50;;;;;;;;;12.50;10.75;;;;;15.31;48.24;96296.31;4928669;28;102608;-84
2021/11/29 03:46:17;;;;;;;;;15.75;12.00;;;;;15.32;48.32;96297.91;4941681;28;104350;-84
2021/11/29 03:48:44;;;;;;;;;15.75;12.75;;;;;15.30;48.61;96284.63;4891220;28;102493;-85
2021/11/29 03:51:11;;;;;;;;;13.50;12.25;;;;;15.31;48.49;96297.09;4917772;28;102478;-85
2021/11/29 03:53:38;;;;;;;;;16.00;11.75;;;;;15.31;48.45;96296.31;4924462;28;102614;-85
2021/11/29 03:56:05;;;;;;;;;13.00;8.75;;;;;15.27;48.47;96278.91;4945756;28;103779;-85
2021/11/29 03:58:33;;;;;;;;;14.50;11.25;;;;;15.31;48.34;96282.72;4930162;28;102694;-85
2021/11/29 04:01:00;;;;;;;;;11.00;11.00;;;;;15.29;48.41;96282.16;4919018;28;102595;-85
2021/11/29 04:03:27;;;;;;;;;13.00;11.00;;;;;15.29;48.46;96284.88;4924319;28;102207;-85
2021/11/29 04:05:57;;;;;;;;;15.00;13.50;;;;;15.29;48.38;96291.16;4929783;28;105957;-84
2021/11/29 04:08:24;;;;;;;;;15.00;12.50;;;;;15.29;48.39;96282.16;4927746;28;102292;-84
2021/11/29 04:10:52;;;;;;;;;11.75;10.50;;;;;15.28;48.41;96275.09;4933403;28;102232;-84
2021/11/29 04:13:19;;;;;;;;;10.50;10.50;;;;;15.28;48.51;96275.09;4934274;28;103667;-85
2021/11/29 04:15:46;;;;;;;;;15.25;10.75;;;;;15.28;48.19;96280.53;4915578;28;109506;-84
2021/11/29 04:18:13;;;;;;;;;11.25;10.25;;;;;15.26;48.29;96288.19;4932964;28;102489;-85
2021/11/29 04:20:40;;;;;;;;;14.50;11.00;;;;;15.27;48.37;96289.78;4917677;28;103816;-85
2021/11/29 04:23:07;;;;;;;;;14.50;10.25;;;;;15.26;48.17;96294.47;4925956;28;102229;-85
2021/11/29 04:25:47;;;;;;;;;13.50;12.75;;;;;15.27;48.26;96301.50;4927788;28;103982;-85
2021/11/29 04:28:14;;;;;;;;;11.25;10.25;;;;;15.27;48.35;96306.13;4935884;28;103405;-85
2021/11/29 04:30:41;;;;;;;;;15.00;12.00;;;;;15.27;48.38;96311.56;4926379;28;103661;-84
2021/11/29 04:33:08;;;;;;;;;10.50;9.75;;;;;15.26;48.51;96301.81;4925053;28;102537;-85
2021/11/29 04:35:35;;;;;;;;;11.50;9.00;;;;;15.26;48.26;96304.53;4929391;28;104040;-84
2021/11/29 04:38:03;;;;;;;;;9.75;8.00;;;;;15.26;48.44;96309.97;4902871;28;102769;-84
2021/11/29 04:40:30;;;;;;;;;10.75;10.75;;;;;15.26;48.26;96318.16;4925062;28;103777;-84
2021/11/29 04:42:57;;;;;;;;;12.00;9.50;;;;;15.26;48.09;96323.59;4899975;28;102593;-85
2021/11/29 04:45:24;;;;;;;;;9.25;9.25;;;;;15.25;48.27;96325.50;4889511;28;104047;-85
2021/11/29 04:47:51;;;;;;;;;10.75;10.25;;;;;15.24;48.43;96312.16;4948424;28;102095;-85
2021/11/29 04:50:18;;;;;;;;;12.25;8.75;;;;;15.25;48.48;96300.19;4936934;28;103972;-85
2021/11/29 04:52:45;;;;;;;;;10.25;7.00;;;;;15.25;48.48;96313.78;4929864;28;103148;-85
2021/11/29 04:55:12;;;;;;;;;11.25;9.25;;;;;15.24;48.34;96309.44;4932669;28;104057;-84
2021/11/29 04:57:40;;;;;;;;;10.50;10.25;;;;;15.24;48.07;96317.59;4933255;28;102394;-84
2021/11/29 05:00:14;;;;;;;;;11.00;9.75;;;;;15.21;47.70;96324.44;4928575;28;102663;-85
2021/11/29 05:02:41;;;;;;;;;11.25;10.00;;;;;15.21;47.71;96312.75;4935324;28;104067;-84
2021/11/29 05:05:08;;;;;;;;;6.75;4.25;;;;;15.19;47.72;96302.94;4933040;28;104646;-85
2021/11/29 05:07:35;;;;;;;;;9.25;9.00;;;;;15.18;47.38;96308.66;4933787;28;102938;-84
2021/11/29 05:10:04;;;;;;;;;10.00;7.00;;;;;15.17;47.41;96307.06;4925101;28;103291;-84
2021/11/29 05:12:31;;;;;;;;;6.75;6.00;;;;;15.15;47.85;96309.25;4940776;28;104157;-84
2021/11/29 05:14:58;;;;;;;;;12.75;9.50;;;;;15.14;47.78;96318.50;4920268;28;104544;-85
2021/11/29 05:17:25;;;;;;;;;7.00;6.75;;;;;15.10;47.47;96312.81;4928019;28;104516;-84
2021/11/29 05:19:53;;;;;;;;;8.00;7.00;;;;;15.11;47.88;96325.34;4949051;28;102179;-85
2021/11/29 05:22:21;;;;;;;;;11.00;8.50;;;;;15.10;47.93;96318.28;4934560;28;110129;-84
2021/11/29 05:24:48;;;;;;;;;8.75;7.00;;;;;15.08;47.52;96331.34;4935204;28;104084;-84
2021/11/29 05:27:15;;;;;;;;;7.75;7.00;;;;;15.05;47.72;96342.81;4931343;28;102624;-85
2021/11/29 05:29:42;;;;;;;;;14.25;12.00;;;;;15.07;47.66;96334.38;4934052;28;103586;-85
2021/11/29 05:32:10;;;;;;;;;14.75;13.25;;;;;15.06;47.60;96330.81;4934529;28;102251;-85
2021/11/29 05:34:38;;;;;;;;;13.00;11.00;;;;;15.04;47.58;96330.28;4934398;28;103779;-85
2021/11/29 05:37:19;;;;;;;;;13.25;11.00;;;;;15.04;47.44;96332.22;4924059;28;102168;-84
2021/11/29 05:39:46;;;;;;;;;13.00;12.00;;;;;15.02;47.44;96337.94;4935466;28;103797;-84
2021/11/29 05:42:13;;;;;;;;;11.00;10.00;;;;;15.03;47.67;96344.19;4939191;28;102199;-84
2021/11/29 05:44:40;;;;;;;;;14.00;12.50;;;;;14.99;47.33;96349.41;4935716;28;104085;-84
2021/11/29 05:47:07;;;;;;;;;12.50;11.00;;;;;14.98;47.38;96336.88;4927532;28;103859;-84
2021/11/29 05:49:34;;;;;;;;;14.75;11.00;;;;;14.99;47.28;96354.03;4940995;28;102649;-84
2021/11/29 05:52:05;;;;;;;;;12.25;10.50;;;;;14.97;47.30;96351.59;4932294;28;102273;-84
2021/11/29 05:54:32;;;;;;;;;12.75;11.00;;;;;14.97;47.11;96365.19;4931846;28;104115;-84
2021/11/29 05:56:59;;;;;;;;;9.75;8.25;;;;;14.95;47.14;96359.19;4946927;28;102508;-84
2021/11/29 05:59:26;;;;;;;;;12.25;11.25;;;;;14.94;47.47;96357.59;4947838;28;102958;-84
2021/11/29 06:01:53;;;;;;;;;10.50;9.50;;;;;14.93;47.25;96350.53;4931583;28;102523;-84
2021/11/29 06:04:20;;;;;;;;;12.75;9.50;;;;;14.91;47.70;96352.72;4918964;28;104219;-84
2021/11/29 06:06:47;;;;;;;;;10.00;10.00;;;;;14.92;47.80;96354.34;4930057;28;102802;-84
2021/11/29 06:09:14;;;;;;;;;11.75;9.75;;;;;14.89;47.18;96357.63;4904379;28;103604;-84
2021/11/29 06:11:41;;;;;;;;;8.00;8.00;;;;;14.91;47.61;96373.66;4914544;28;105258;-84
2021/11/29 06:14:09;;;;;;;;;10.25;8.75;;;;;14.90;47.01;96375.59;4947842;28;104070;-84
2021/11/29 06:16:36;;;;;;;;;11.75;8.00;;;;;14.89;47.31;96387.56;4917081;28;102276;-84
2021/11/29 06:19:03;;;;;;;;;6.75;5.00;;;;;14.89;47.04;96390.28;4922432;28;102745;-84
2021/11/29 06:21:30;;;;;;;;;10.00;10.00;;;;;14.89;47.16;96394.91;4922442;28;102348;-84
2021/11/29 06:23:57;;;;;;;;;13.50;12.50;;;;;14.89;46.94;96397.63;4928838;28;104221;-84
2021/11/29 06:26:24;;;;;;;;;9.50;9.50;;;;;14.86;47.33;96404.44;4930715;28;102789;-84
2021/11/29 06:28:51;;;;;;;;;10.50;10.00;;;;;14.84;47.04;96401.19;4945096;28;102687;-84
2021/11/29 06:31:18;;;;;;;;;10.00;8.50;;;;;14.82;46.85;96406.09;4916765;28;102180;-84
2021/11/29 06:33:45;;;;;;;;;10.75;10.25;;;;;14.79;46.75;96419.44;4935387;28;104141;-84
2021/11/29 06:36:28;;;;;;;;;7.75;7.00;;;;;14.79;46.63;96425.72;4937665;28;102845;-84
2021/11/29 06:38:56;;;;;;;;;10.00;9.00;;;;;14.80;47.09;96415.66;4933016;28;103347;-85
2021/11/29 06:41:23;;;;;;;;;12.75;9.00;;;;;14.79;46.96;96420.28;4935697;28;103887;-84
2021/11/29 06:43:50;;;;;;;;;11.50;9.25;;;;;14.78;46.94;96421.34;4949984;28;103867;-84
2021/11/29 06:46:18;;;;;;;;;8.00;7.25;;;;;14.77;46.73;96424.38;4920880;28;103916;-84
2021/11/29 06:48:45;;;;;;;;;7.75;7.75;;;;;14.76;46.64;96436.34;4916131;28;103657;-85
2021/11/29 06:51:12;;;;;;;;;9.25;8.75;;;;;14.76;47.30;96437.16;4925294;28;104273;-84
2021/11/29 06:53:40;;;;;;;;;10.75;7.75;;;;;14.77;47.20;96446.16;4936385;28;104110;-84
2021/11/29 06:56:07;;;;;;;;;7.25;7.00;;;;;14.74;46.59;96437.44;4937670;28;102663;-84
2021/11/29 06:58:36;;;;;;;;;11.25;9.00;;;;;14.76;46.87;96452.66;4940302;28;102173;-84
2021/11/29 07:01:04;;;;;;;;;10.50;9.25;;;;;14.74;46.65;96450.22;4934672;28;102608;-84
2021/11/29 07:03:32;;;;;;;;;9.25;7.00;;;;;14.74;47.08;96461.09;4929827;28;104189;-84
2021/11/29 07:05:59;;;;;;;;;9.75;8.25;;;;;14.74;46.66;96469.25;4929248;28;104093;-84
2021/11/29 07:08:26;;;;;;;;;11.25;8.25;;;;;14.72;46.62;96464.09;4933969;28;102536;-84
2021/11/29 07:10:53;;;;;;;;;10.75;9.50;;;;;14.70;46.55;96471.75;4932980;28;102659;-84
2021/11/29 07:13:20;;;;;;;;;6.75;5.50;;;;;14.71;46.54;96475.28;4941484;28;104090;-84
2021/11/29 07:15:47;;;;;;;;;11.00;8.75;;;;;14.69;46.50;96480.16;4926584;28;102328;-84
2021/11/29 07:18:14;;;;;;;;;7.25;7.25;;;;;14.67;46.57;96480.47;4928039;28;102458;-84
2021/11/29 07:20:41;;;;;;;;;6.50;5.50;;;;;14.67;46.60;96476.94;4937312;28;102256;-84
2021/11/29 07:23:08;;;;;;;;;9.75;7.75;;;;;14.65;46.79;96479.91;4929961;28;104061;-84
2021/11/29 07:25:35;;;;;;;;;12.50;7.25;;;;;14.65;47.16;96474.47;4918445;28;102609;-84
2021/11/29 07:28:03;;;;;;;;;10.00;9.00;;;;;14.64;47.14;96477.47;4946338;28;102011;-84
2021/11/29 07:30:30;;;;;;;;;6.50;6.50;;;;;14.63;46.59;96470.41;4934502;28;102411;-84
2021/11/29 07:32:57;;;;;;;;;9.50;8.00;;;;;14.62;47.02;96482.38;4917372;28;104510;-84
2021/11/29 07:35:26;;;;;;;;;10.00;9.00;;;;;14.62;46.57;96485.09;4934363;28;102199;-84
2021/11/29 07:37:54;;;;;;;;;11.75;7.75;;;;;14.62;46.50;96490.53;4922846;28;101995;-84
2021/11/29 07:40:21;;;;;;;;;9.75;7.25;;;;;14.60;47.01;96481.84;4915502;28;103289;-84
2021/11/29 07:42:48;;;;;;;;;9.25;8.50;;;;;14.61;46.51;96484.28;4927030;28;109526;-84
2021/11/29 07:45:15;;;;;;;;;7.00;7.00;;;;;14.62;46.53;96483.19;4944778;28;102804;-85
2021/11/29 07:47:43;;;;;;;;;9.00;9.00;;;;;14.63;46.56;96473.13;4938729;28;102668;-85
2021/11/29 07:50:11;;;;;;;;;6.00;6.00;;;;;14.65;46.72;96479.09;4933963;28;102436;-85
2021/11/29 07:52:38;;;;;;;;;7.25;7.00;;;;;14.66;47.19;96465.22;4920999;28;104128;-84
2021/11/29 07:55:11;;;;;;;;;11.25;8.00;;;;;14.69;46.77;96472.00;4928438;28;102649;-84
2021/11/29 07:57:39;;;;;;;;;7.50;7.50;;;;;14.69;46.67;96463.84;4934445;28;103277;-84
2021/11/29 08:00:10;;;;;;;;;9.50;6.00;;;;;14.72;46.93;96463.31;4920246;28;102624;-84
2021/11/29 08:02:37;;;;;;;;;7.00;6.50;;;;;14.72;46.54;96466.81;4928528;28;104058;-84
2021/11/29 08:05:05;;;;;;;;;5.00;4.75;;;;;14.73;46.84;96460.28;4927707;28;102669;-84
2021/11/29 08:07:32;;;;;;;;;10.75;8.50;;;;;14.74;46.91;96450.22;4932243;28;103131;-84
2021/11/29 08:09:59;;;;;;;;;5.50;5.50;;;;;14.76;46.87;96464.38;4943218;28;102193;-84
2021/11/29 08:12:26;;;;;;;;;5.75;5.75;;;;;14.76;46.32;96461.66;4931301;28;104019;-85
2021/11/29 08:14:54;;;;;;;;;7.00;7.00;;;;;14.79;46.84;96454.81;4947293;28;102594;-84
2021/11/29 08:17:21;;;;;;;;;9.50;7.00;;;;;14.79;47.01;96457.53;4927263;28;102342;-84
2021/11/29 08:19:48;;;;;;;;;6.00;6.00;;;;;14.80;46.39;96460.00;4918280;28;102290;-84
2021/11/29 08:22:16;;;;;;;;;10.00;7.25;;;;;14.82;46.70;96463.22;4935415;28;104165;-84
2021/11/29 08:24:44;;;;;;;;;7.50;6.75;;;;;14.82;46.63;96456.97;4934387;28;102604;-85
2021/11/29 08:27:11;;;;;;;;;7.25;6.75;;;;;14.84;46.44;96466.50;4925219;28;103362;-84
2021/11/29 08:29:38;;;;;;;;;7.50;7.00;;;;;14.85;46.80;96479.03;4923899;28;103499;-84
2021/11/29 08:32:06;;;;;;;;;6.75;6.75;;;;;14.86;46.48;96477.91;4917553;28;104053;-84
2021/11/29 08:34:34;;;;;;;;;5.25;5.25;;;;;14.86;46.82;96475.19;4927518;28;102553;-84
2021/11/29 08:37:01;;;;;;;;;6.50;6.50;;;;;14.87;46.71;96482.25;4937000;28;103648;-84
2021/11/29 08:39:28;;;;;;;;;10.00;8.50;;;;;14.86;46.99;96477.91;4949760;28;102298;-84
2021/11/29 08:41:55;;;;;;;;;8.50;6.00;;;;;14.88;46.77;96494.78;4914000;28;104333;-84
2021/11/29 08:44:23;;;;;;;;;6.50;6.00;;;;;14.89;46.60;96496.41;4950896;28;104562;-84
2021/11/29 08:46:50;;;;;;;;;7.75;7.00;;;;;14.89;46.88;96496.41;4948022;28;102483;-84
2021/11/29 08:49:17;;;;;;;;;9.50;8.00;;;;;14.90;47.04;96500.75;4929053;28;102636;-84
2021/11/29 08:51:45;;;;;;;;;6.00;6.00;;;;;14.89;46.35;96507.28;4931911;28;104187;-84
2021/11/29 08:54:12;;;;;;;;;6.50;6.00;;;;;14.90;46.63;96503.47;4928236;28;102219;-84
2021/11/29 08:56:39;;;;;;;;;7.50;7.50;;;;;14.89;46.58;96510.00;4933287;28;102547;-84
2021/11/29 08:59:06;;;;;;;;;6.25;6.00;;;;;14.89;46.70;96507.28;4934741;28;102774;-85
2021/11/29 09:01:33;;;;;;;;;11.25;6.25;;;;;14.89;46.54;96507.28;4951044;28;104116;-84
2021/11/29 09:04:02;;;;;;;;;9.25;6.00;;;;;14.89;46.48;96507.28;4931848;28;102147;-84
2021/11/29 09:06:29;;;;;;;;;4.00;4.00;;;;;14.88;46.77;96513.00;4906213;28;102154;-84
2021/11/29 09:08:56;;;;;;;;;5.00;5.00;;;;;14.87;46.11;96501.31;4945294;28;102644;-84
2021/11/29 09:11:25;;;;;;;;;9.75;6.00;;;;;14.88;46.28;96505.66;4930790;28;103726;-84
2021/11/29 09:13:52;;;;;;;;;9.50;7.00;;;;;14.87;46.18;96501.31;4931705;28;102407;-84
2021/11/29 09:16:19;;;;;;;;;7.75;6.75;;;;;14.88;46.37;96511.09;4933065;28;102487;-85
2021/11/29 09:18:46;;;;;;;;;7.00;7.00;;;;;14.88;46.50;96513.00;4932217;28;103366;-84
2021/11/29 09:21:15;;;;;;;;;6.75;6.00;;;;;14.88;45.88;96519.25;4917141;28;104396;-84
2021/11/29 09:23:42;;;;;;;;;6.00;6.00;;;;;14.88;45.96;96515.72;4941315;28;103108;-84
2021/11/29 09:26:09;;;;;;;;;6.25;6.25;;;;;14.87;45.74;96508.66;4932529;28;102802;-84
2021/11/29 09:28:38;;;;;;;;;6.75;6.25;;;;;14.87;45.96;96514.91;4936426;28;103232;-84
2021/11/29 09:31:05;;;;;;;;;7.50;6.00;;;;;14.85;46.41;96511.66;4925308;28;104078;-84
2021/11/29 09:33:33;;;;;;;;;10.25;7.00;;;;;14.88;46.25;96515.72;4940780;28;102293;-84
2021/11/29 09:36:01;;;;;;;;;6.25;5.75;;;;;14.85;46.44;96510.84;4930149;28;103195;-84
2021/11/29 09:38:28;;;;;;;;;6.50;6.00;;;;;14.86;46.02;96513.28;4939300;28;102842;-84
2021/11/29 09:40:55;;;;;;;;;6.75;6.00;;;;;14.84;46.12;96512.75;4942042;28;103762;-84
2021/11/29 09:43:22;;;;;;;;;7.50;6.50;;;;;14.84;46.44;96512.75;4935970;28;103064;-84
2021/11/29 09:45:49;;;;;;;;;8.25;6.75;;;;;14.84;46.21;96518.19;4946021;28;102400;-84
2021/11/29 09:48:17;;;;;;;;;7.00;6.00;;;;;14.83;46.44;96513.84;4934363;28;103603;-84
2021/11/29 09:50:46;;;;;;;;;5.75;5.75;;;;;14.83;46.13;96519.28;4927823;28;104097;-84
2021/11/29 09:53:17;;;;;;;;;6.00;5.75;;;;;14.81;46.33;96509.78;4928934;28;104180;-84
2021/11/29 09:55:44;;;;;;;;;6.25;5.75;;;;;14.82;46.26;96511.38;4939456;28;102511;-84
2021/11/29 09:58:11;;;;;;;;;6.00;5.00;;;;;14.81;46.47;96510.59;4933590;28;102321;-84
2021/11/29 10:00:41;;;;;;;;;8.75;5.75;;;;;14.82;46.23;96514.09;4934228;28;104272;-85
2021/11/29 10:03:08;;;;;;;;;6.00;5.00;;;;;14.82;46.41;96520.38;4928059;28;102613;-84
2021/11/29 10:05:36;;;;;;;;;5.75;4.75;;;;;14.83;46.38;96530.16;4917376;28;102556;-84
2021/11/29 10:08:28;;;;;;;;;7.00;6.00;;;;;14.82;46.44;96525.81;4932898;28;104051;-84
2021/11/29 10:11:17;;;;;;;;;5.25;5.25;;;;;14.84;46.05;96529.09;4920089;28;110155;-84
2021/11/29 10:13:51;;;;;;;;;5.50;5.00;;;;;14.84;46.52;96526.38;4942556;28;102613;-85
2021/11/29 10:16:31;;;;;;;;;6.00;4.00;;;;;14.84;46.40;96526.38;4924216;28;102130;-84
2021/11/29 10:18:58;;;;;;;;;5.25;5.00;;;;;14.85;46.04;96527.19;4929222;28;102717;-84
2021/11/29 10:21:25;;;;;;;;;6.00;4.75;;;;;14.88;46.05;96534.78;4923497;28;103469;-84
2021/11/29 10:23:55;;;;;;;;;5.75;5.00;;;;;14.88;46.25;96532.06;4938305;28;102726;-84
2021/11/29 10:26:33;;;;;;;;;4.75;4.75;;;;;14.89;45.88;96530.97;4934210;28;103281;-84
2021/11/29 10:29:00;;;;;;;;;5.00;5.00;;;;;14.90;46.21;96543.50;4926847;28;102581;-84
2021/11/29 10:31:40;;;;;;;;;5.25;4.50;;;;;14.90;46.25;96535.31;4937633;28;103791;-84
2021/11/29 10:34:17;;;;;;;;;5.00;5.00;;;;;14.91;46.19;96542.38;4932409;28;103288;-84
2021/11/29 10:36:49;;;;;;;;;4.00;4.00;;;;;14.91;46.29;96553.25;4936920;28;102440;-84
2021/11/29 10:39:20;;;;;;;;;5.75;5.75;;;;;14.92;46.45;96549.44;4921162;28;102690;-84
2021/11/29 10:41:54;;;;;;;;;6.00;4.00;;;;;14.91;46.07;96543.19;4929785;28;104289;-84
2021/11/29 10:44:26;;;;;;;;;6.50;5.00;;;;;14.92;46.09;96555.72;4928254;28;105417;-84
2021/11/29 10:46:55;;;;;;;;;5.25;4.00;;;;;14.93;45.97;96551.91;4942140;28;102444;-84
2021/11/29 10:49:26;;;;;;;;;7.00;6.00;;;;;14.93;46.12;96557.34;4928776;28;102518;-84
2021/11/29 10:51:54;;;;;;;;;6.00;4.75;;;;;14.94;46.04;96555.44;4926949;28;109005;-84
2021/11/29 10:54:23;;;;;;;;;5.00;5.00;;;;;14.94;45.84;96548.09;4916432;28;102397;-84
2021/11/29 10:56:52;;;;;;;;;5.00;4.75;;;;;14.94;45.94;96558.97;4914139;28;103908;-84
2021/11/29 10:59:22;;;;;;;;;5.50;5.50;;;;;14.93;45.59;96565.50;4926236;28;111199;-84
2021/11/29 11:01:51;;;;;;;;;6.00;6.00;;;;;14.94;46.23;96561.69;4913120;28;108890;-84
2021/11/29 11:04:24;;;;;;;;;4.25;3.50;;;;;14.90;45.78;96560.63;4939593;28;102337;-84
2021/11/29 11:06:58;;;;;;;;;4.00;4.00;;;;;14.93;45.77;96561.97;4895373;28;103049;-84
2021/11/29 11:09:29;;;;;;;;;5.50;5.50;;;;;14.92;45.94;96561.16;4915945;28;102254;-84
2021/11/29 11:12:14;;;;;;;;;5.00;4.75;;;;;14.92;45.82;96563.88;4926242;28;105152;-84
2021/11/29 11:14:50;;;;;;;;;6.50;5.00;;;;;14.91;45.86;96564.97;4933802;28;102086;-84
2021/11/29 11:17:31;;;;;;;;;4.50;3.25;;;;;14.92;45.83;96566.59;4924315;28;102308;-84
2021/11/29 11:20:03;;;;;;;;;6.25;5.50;;;;;14.91;45.71;96570.41;4909418;28;102340;-84
2021/11/29 11:22:35;;;;;;;;;4.00;3.00;;;;;14.90;46.07;96574.25;4925674;28;104039;-84
2021/11/29 11:25:18;;;;;;;;;4.00;4.00;;;;;14.90;46.06;96576.97;4922172;28;102948;-84
2021/11/29 11:27:54;;;;;;;;;4.25;4.00;;;;;14.90;45.91;96582.41;4922314;28;102752;-85
2021/11/29 11:30:21;;;;;;;;;4.25;4.00;;;;;14.90;45.70;96581.59;4931331;28;102528;-84
2021/11/29 11:32:56;;;;;;;;;7.00;5.75;;;;;14.90;45.90;96578.88;4933739;28;104219;-84
2021/11/29 11:35:32;;;;;;;;;5.25;4.00;;;;;14.89;46.22;96578.03;4931138;28;102446;-84